sensor_id;sensor_type;location;lat;lon;timestamp;P1;durP1;ratioP1;P2;durP2;ratioP2
75508;SDS011;64214;47.250;11.332;2022-12-11T00:00:04;4.20;;;3.63;;
75508;SDS011;64214;47.250;11.332;2022-12-11T00:00:16;4.50;;;3.80;;
75508;SDS011;64214;47.250;11.332;2022-12-11T00:00:27;4.78;;;3.92;;
75508;SDS011;64214;47.250;11.332;2022-12-11T00:00:38;4.50;;;3.83;;
75508;SDS011;64214;47.250;11.332;2022-12-11T00:00:50;4.73;;;4.00;;
75508;SDS011;64214;47.250;11.332;2022-12-11T00:01:06;4.82;;;4.00;;
75508;SDS011;64214;47.250;11.332;2022-12-11T00:01:19;4.57;;;3.85;;
75508;SDS011;64214;47.250;11.332;2022-12-11T00:01:31;4.60;;;3.80;;
75508;SDS011;64214;47.250;11.332;2022-12-11T00:01:42;4.90;;;3.80;;
75508;SDS011;64214;47.250;11.332;2022-12-11T00:01:53;4.68;;;3.70;;
75508;SDS011;64214;47.250;11.332;2022-12-11T00:02:04;4.70;;;3.90;;
75508;SDS011;64214;47.250;11.332;2022-12-11T00:02:16;4.90;;;4.07;;
75508;SDS011;64214;47.250;11.332;2022-12-11T00:02:27;5.13;;;4.10;;
75508;SDS011;64214;47.250;11.332;2022-12-11T00:02:39;5.25;;;3.90;;
75508;SDS011;64214;47.250;11.332;2022-12-11T00:02:50;4.65;;;3.60;;
75508;SDS011;64214;47.250;11.332;2022-12-11T00:03:01;4.55;;;3.80;;
75508;SDS011;64214;47.250;11.332;2022-12-11T00:03:12;4.53;;;3.72;;
75508;SDS011;64214;47.250;11.332;2022-12-11T00:03:23;4.65;;;3.83;;
75508;SDS011;64214;47.250;11.332;2022-12-11T00:03:34;4.53;;;3.70;;
75508;SDS011;64214;47.250;11.332;2022-12-11T00:03:46;4.57;;;3.75;;
75508;SDS011;64214;47.250;11.332;2022-12-11T00:03:57;4.63;;;3.92;;
75508;SDS011;64214;47.250;11.332;2022-12-11T00:04:08;5.22;;;4.13;;
75508;SDS011;64214;47.250;11.332;2022-12-11T00:04:20;5.10;;;4.22;;
75508;SDS011;64214;47.250;11.332;2022-12-11T00:04:31;4.78;;;3.97;;
75508;SDS011;64214;47.250;11.332;2022-12-11T00:04:42;4.35;;;3.80;;
75508;SDS011;64214;47.250;11.332;2022-12-11T00:04:53;4.28;;;3.63;;
75508;SDS011;64214;47.250;11.332;2022-12-11T00:05:05;4.18;;;3.53;;
75508;SDS011;64214;47.250;11.332;2022-12-11T00:05:19;4.45;;;3.60;;
75508;SDS011;64214;47.250;11.332;2022-12-11T00:05:30;4.25;;;3.42;;
75508;SDS011;64214;47.250;11.332;2022-12-11T00:05:41;4.65;;;3.70;;
75508;SDS011;64214;47.250;11.332;2022-12-11T00:05:53;4.45;;;3.65;;
75508;SDS011;64214;47.250;11.332;2022-12-11T00:06:05;4.15;;;3.53;;
75508;SDS011;64214;47.250;11.332;2022-12-11T00:06:18;4.15;;;3.47;;
75508;SDS011;64214;47.250;11.332;2022-12-11T00:06:30;4.43;;;3.60;;
75508;SDS011;64214;47.250;11.332;2022-12-11T00:06:41;4.40;;;3.35;;
75508;SDS011;64214;47.250;11.332;2022-12-11T00:06:52;4.00;;;3.13;;
75508;SDS011;64214;47.250;11.332;2022-12-11T00:07:04;3.80;;;2.95;;
75508;SDS011;64214;47.250;11.332;2022-12-11T00:07:15;4.03;;;3.17;;
75508;SDS011;64214;47.250;11.332;2022-12-11T00:07:26;3.90;;;3.00;;
75508;SDS011;64214;47.250;11.332;2022-12-11T00:07:37;3.72;;;2.90;;
75508;SDS011;64214;47.250;11.332;2022-12-11T00:07:48;3.85;;;2.90;;
75508;SDS011;64214;47.250;11.332;2022-12-11T00:07:59;3.90;;;3.00;;
75508;SDS011;64214;47.250;11.332;2022-12-11T00:08:10;4.13;;;3.17;;
75508;SDS011;64214;47.250;11.332;2022-12-11T00:08:22;5.05;;;3.53;;
75508;SDS011;64214;47.250;11.332;2022-12-11T00:08:33;4.80;;;3.63;;
75508;SDS011;64214;47.250;11.332;2022-12-11T00:08:44;4.68;;;3.45;;
75508;SDS011;64214;47.250;11.332;2022-12-11T00:08:55;4.07;;;3.28;;
75508;SDS011;64214;47.250;11.332;2022-12-11T00:09:06;4.38;;;3.13;;
75508;SDS011;64214;47.250;11.332;2022-12-11T00:09:18;4.78;;;3.17;;
75508;SDS011;64214;47.250;11.332;2022-12-11T00:09:31;4.43;;;3.10;;
75508;SDS011;64214;47.250;11.332;2022-12-11T00:09:42;4.05;;;3.00;;
75508;SDS011;64214;47.250;11.332;2022-12-11T00:09:53;3.70;;;2.92;;
75508;SDS011;64214;47.250;11.332;2022-12-11T00:10:05;4.10;;;3.10;;
75508;SDS011;64214;47.250;11.332;2022-12-11T00:10:16;3.88;;;3.10;;
75508;SDS011;64214;47.250;11.332;2022-12-11T00:10:29;4.03;;;3.30;;
75508;SDS011;64214;47.250;11.332;2022-12-11T00:10:46;4.13;;;3.42;;
75508;SDS011;64214;47.250;11.332;2022-12-11T00:10:59;4.03;;;3.42;;
75508;SDS011;64214;47.250;11.332;2022-12-11T00:11:11;4.13;;;3.38;;
75508;SDS011;64214;47.250;11.332;2022-12-11T00:11:23;4.15;;;3.33;;
75508;SDS011;64214;47.250;11.332;2022-12-11T00:11:37;3.50;;;3.03;;
75508;SDS011;64214;47.250;11.332;2022-12-11T00:11:48;3.47;;;2.90;;
75508;SDS011;64214;47.250;11.332;2022-12-11T00:11:59;3.65;;;3.00;;
75508;SDS011;64214;47.250;11.332;2022-12-11T00:12:12;4.18;;;3.38;;
75508;SDS011;64214;47.250;11.332;2022-12-11T00:12:23;3.95;;;3.35;;
75508;SDS011;64214;47.250;11.332;2022-12-11T00:12:34;4.03;;;3.40;;
75508;SDS011;64214;47.250;11.332;2022-12-11T00:12:45;4.03;;;3.47;;
75508;SDS011;64214;47.250;11.332;2022-12-11T00:12:56;4.28;;;3.63;;
75508;SDS011;64214;47.250;11.332;2022-12-11T00:13:08;4.40;;;3.60;;
75508;SDS011;64214;47.250;11.332;2022-12-11T00:13:19;4.03;;;3.33;;
75508;SDS011;64214;47.250;11.332;2022-12-11T00:13:30;3.95;;;3.22;;
75508;SDS011;64214;47.250;11.332;2022-12-11T00:13:41;4.00;;;3.30;;
75508;SDS011;64214;47.250;11.332;2022-12-11T00:13:52;4.00;;;3.22;;
75508;SDS011;64214;47.250;11.332;2022-12-11T00:14:04;4.13;;;3.38;;
75508;SDS011;64214;47.250;11.332;2022-12-11T00:14:15;3.92;;;3.20;;
75508;SDS011;64214;47.250;11.332;2022-12-11T00:14:26;4.22;;;3.47;;
75508;SDS011;64214;47.250;11.332;2022-12-11T00:14:37;4.47;;;3.50;;
75508;SDS011;64214;47.250;11.332;2022-12-11T00:14:48;5.03;;;3.85;;
75508;SDS011;64214;47.250;11.332;2022-12-11T00:14:59;5.20;;;3.80;;
75508;SDS011;64214;47.250;11.332;2022-12-11T00:15:10;4.85;;;3.90;;
75508;SDS011;64214;47.250;11.332;2022-12-11T00:15:22;4.72;;;3.90;;
75508;SDS011;64214;47.250;11.332;2022-12-11T00:15:33;4.73;;;4.00;;
75508;SDS011;64214;47.250;11.332;2022-12-11T00:15:44;5.30;;;4.15;;
75508;SDS011;64214;47.250;11.332;2022-12-11T00:15:58;5.70;;;4.28;;
75508;SDS011;64214;47.250;11.332;2022-12-11T00:16:09;5.25;;;3.97;;
75508;SDS011;64214;47.250;11.332;2022-12-11T00:16:21;4.97;;;4.00;;
75508;SDS011;64214;47.250;11.332;2022-12-11T00:16:32;5.35;;;4.22;;
75508;SDS011;64214;47.250;11.332;2022-12-11T00:16:43;5.43;;;4.30;;
75508;SDS011;64214;47.250;11.332;2022-12-11T00:16:54;5.78;;;4.30;;
75508;SDS011;64214;47.250;11.332;2022-12-11T00:17:05;6.40;;;4.35;;
75508;SDS011;64214;47.250;11.332;2022-12-11T00:17:16;6.38;;;4.60;;
75508;SDS011;64214;47.250;11.332;2022-12-11T00:17:27;6.13;;;4.75;;
75508;SDS011;64214;47.250;11.332;2022-12-11T00:17:38;6.22;;;4.65;;
75508;SDS011;64214;47.250;11.332;2022-12-11T00:17:50;6.35;;;4.60;;
75508;SDS011;64214;47.250;11.332;2022-12-11T00:18:01;5.95;;;4.25;;
75508;SDS011;64214;47.250;11.332;2022-12-11T00:18:12;5.57;;;4.32;;
75508;SDS011;64214;47.250;11.332;2022-12-11T00:18:24;6.30;;;4.50;;
75508;SDS011;64214;47.250;11.332;2022-12-11T00:18:35;6.00;;;4.40;;
75508;SDS011;64214;47.250;11.332;2022-12-11T00:18:47;4.95;;;4.22;;
75508;SDS011;64214;47.250;11.332;2022-12-11T00:18:58;5.00;;;4.38;;
75508;SDS011;64214;47.250;11.332;2022-12-11T00:19:09;5.05;;;4.45;;
75508;SDS011;64214;47.250;11.332;2022-12-11T00:19:20;5.30;;;4.25;;
75508;SDS011;64214;47.250;11.332;2022-12-11T00:19:31;5.65;;;4.30;;
75508;SDS011;64214;47.250;11.332;2022-12-11T00:19:42;5.90;;;4.30;;
75508;SDS011;64214;47.250;11.332;2022-12-11T00:19:53;5.63;;;4.22;;
75508;SDS011;64214;47.250;11.332;2022-12-11T00:20:05;5.30;;;4.20;;
75508;SDS011;64214;47.250;11.332;2022-12-11T00:20:17;5.05;;;4.10;;
75508;SDS011;64214;47.250;11.332;2022-12-11T00:20:28;5.13;;;4.00;;
75508;SDS011;64214;47.250;11.332;2022-12-11T00:20:39;5.78;;;4.20;;
75508;SDS011;64214;47.250;11.332;2022-12-11T00:20:51;6.07;;;4.30;;
75508;SDS011;64214;47.250;11.332;2022-12-11T00:21:05;5.65;;;4.18;;
75508;SDS011;64214;47.250;11.332;2022-12-11T00:21:18;5.10;;;3.75;;
75508;SDS011;64214;47.250;11.332;2022-12-11T00:21:29;5.30;;;3.80;;
75508;SDS011;64214;47.250;11.332;2022-12-11T00:21:40;4.97;;;3.90;;
75508;SDS011;64214;47.250;11.332;2022-12-11T00:21:51;5.20;;;4.00;;
75508;SDS011;64214;47.250;11.332;2022-12-11T00:22:02;5.03;;;3.80;;
75508;SDS011;64214;47.250;11.332;2022-12-11T00:22:13;4.97;;;3.70;;
75508;SDS011;64214;47.250;11.332;2022-12-11T00:22:24;4.80;;;3.80;;
75508;SDS011;64214;47.250;11.332;2022-12-11T00:22:35;4.85;;;4.10;;
75508;SDS011;64214;47.250;11.332;2022-12-11T00:22:49;4.88;;;3.95;;
75508;SDS011;64214;47.250;11.332;2022-12-11T00:23:00;4.72;;;3.63;;
75508;SDS011;64214;47.250;11.332;2022-12-11T00:23:12;4.63;;;3.47;;
75508;SDS011;64214;47.250;11.332;2022-12-11T00:23:23;5.13;;;3.58;;
75508;SDS011;64214;47.250;11.332;2022-12-11T00:23:34;5.25;;;3.80;;
75508;SDS011;64214;47.250;11.332;2022-12-11T00:23:46;4.97;;;3.60;;
75508;SDS011;64214;47.250;11.332;2022-12-11T00:23:57;4.30;;;3.40;;
75508;SDS011;64214;47.250;11.332;2022-12-11T00:24:08;4.03;;;3.22;;
75508;SDS011;64214;47.250;11.332;2022-12-11T00:24:19;4.50;;;3.40;;
75508;SDS011;64214;47.250;11.332;2022-12-11T00:24:30;4.90;;;3.72;;
75508;SDS011;64214;47.250;11.332;2022-12-11T00:24:41;4.57;;;3.63;;
75508;SDS011;64214;47.250;11.332;2022-12-11T00:24:52;4.38;;;3.58;;
75508;SDS011;64214;47.250;11.332;2022-12-11T00:25:06;4.32;;;3.40;;
75508;SDS011;64214;47.250;11.332;2022-12-11T00:25:18;5.03;;;3.53;;
75508;SDS011;64214;47.250;11.332;2022-12-11T00:25:29;4.97;;;3.42;;
75508;SDS011;64214;47.250;11.332;2022-12-11T00:25:43;4.65;;;3.70;;
75508;SDS011;64214;47.250;11.332;2022-12-11T00:25:56;4.25;;;3.67;;
75508;SDS011;64214;47.250;11.332;2022-12-11T00:26:08;4.70;;;3.67;;
75508;SDS011;64214;47.250;11.332;2022-12-11T00:26:21;4.72;;;3.47;;
75508;SDS011;64214;47.250;11.332;2022-12-11T00:26:33;4.40;;;3.38;;
75508;SDS011;64214;47.250;11.332;2022-12-11T00:26:44;4.68;;;3.70;;
75508;SDS011;64214;47.250;11.332;2022-12-11T00:26:55;4.53;;;3.80;;
75508;SDS011;64214;47.250;11.332;2022-12-11T00:27:06;4.40;;;3.65;;
75508;SDS011;64214;47.250;11.332;2022-12-11T00:27:17;3.92;;;3.22;;
75508;SDS011;64214;47.250;11.332;2022-12-11T00:27:29;4.07;;;3.20;;
75508;SDS011;64214;47.250;11.332;2022-12-11T00:27:40;3.80;;;3.00;;
75508;SDS011;64214;47.250;11.332;2022-12-11T00:27:51;3.92;;;3.10;;
75508;SDS011;64214;47.250;11.332;2022-12-11T00:28:02;4.05;;;3.22;;
75508;SDS011;64214;47.250;11.332;2022-12-11T00:28:14;4.30;;;3.47;;
75508;SDS011;64214;47.250;11.332;2022-12-11T00:28:28;4.13;;;3.45;;
75508;SDS011;64214;47.250;11.332;2022-12-11T00:28:39;4.13;;;3.40;;
75508;SDS011;64214;47.250;11.332;2022-12-11T00:28:52;4.20;;;3.45;;
75508;SDS011;64214;47.250;11.332;2022-12-11T00:29:04;4.13;;;3.40;;
75508;SDS011;64214;47.250;11.332;2022-12-11T00:29:15;4.32;;;3.35;;
75508;SDS011;64214;47.250;11.332;2022-12-11T00:29:26;4.78;;;3.40;;
75508;SDS011;64214;47.250;11.332;2022-12-11T00:29:37;5.07;;;3.50;;
75508;SDS011;64214;47.250;11.332;2022-12-11T00:29:48;4.82;;;3.58;;
75508;SDS011;64214;47.250;11.332;2022-12-11T00:29:59;4.25;;;3.53;;
75508;SDS011;64214;47.250;11.332;2022-12-11T00:30:11;4.30;;;3.30;;
75508;SDS011;64214;47.250;11.332;2022-12-11T00:30:22;4.75;;;3.30;;
75508;SDS011;64214;47.250;11.332;2022-12-11T00:30:33;4.53;;;3.30;;
75508;SDS011;64214;47.250;11.332;2022-12-11T00:30:48;4.63;;;3.30;;
75508;SDS011;64214;47.250;11.332;2022-12-11T00:31:06;4.68;;;3.45;;
75508;SDS011;64214;47.250;11.332;2022-12-11T00:31:18;4.07;;;3.15;;
75508;SDS011;64214;47.250;11.332;2022-12-11T00:31:29;4.50;;;3.30;;
75508;SDS011;64214;47.250;11.332;2022-12-11T00:31:41;4.90;;;3.45;;
75508;SDS011;64214;47.250;11.332;2022-12-11T00:31:52;5.05;;;3.60;;
75508;SDS011;64214;47.250;11.332;2022-12-11T00:32:03;4.95;;;3.45;;
75508;SDS011;64214;47.250;11.332;2022-12-11T00:32:14;4.50;;;3.33;;
75508;SDS011;64214;47.250;11.332;2022-12-11T00:32:25;4.47;;;3.28;;
75508;SDS011;64214;47.250;11.332;2022-12-11T00:32:37;4.70;;;3.42;;
75508;SDS011;64214;47.250;11.332;2022-12-11T00:32:50;4.45;;;3.38;;
75508;SDS011;64214;47.250;11.332;2022-12-11T00:33:01;5.00;;;3.40;;
75508;SDS011;64214;47.250;11.332;2022-12-11T00:33:13;4.90;;;3.42;;
75508;SDS011;64214;47.250;11.332;2022-12-11T00:33:25;4.85;;;3.30;;
75508;SDS011;64214;47.250;11.332;2022-12-11T00:33:36;3.80;;;3.10;;
75508;SDS011;64214;47.250;11.332;2022-12-11T00:33:47;4.38;;;3.20;;
75508;SDS011;64214;47.250;11.332;2022-12-11T00:34:00;4.47;;;3.20;;
75508;SDS011;64214;47.250;11.332;2022-12-11T00:34:12;4.50;;;3.15;;
75508;SDS011;64214;47.250;11.332;2022-12-11T00:34:23;3.80;;;3.10;;
75508;SDS011;64214;47.250;11.332;2022-12-11T00:34:34;3.72;;;3.05;;
75508;SDS011;64214;47.250;11.332;2022-12-11T00:34:46;4.25;;;3.38;;
75508;SDS011;64214;47.250;11.332;2022-12-11T00:34:57;4.55;;;3.53;;
75508;SDS011;64214;47.250;11.332;2022-12-11T00:35:08;4.82;;;3.55;;
75508;SDS011;64214;47.250;11.332;2022-12-11T00:35:20;4.82;;;3.40;;
75508;SDS011;64214;47.250;11.332;2022-12-11T00:35:31;4.85;;;3.40;;
75508;SDS011;64214;47.250;11.332;2022-12-11T00:35:43;4.90;;;3.58;;
75508;SDS011;64214;47.250;11.332;2022-12-11T00:35:55;4.80;;;3.50;;
75508;SDS011;64214;47.250;11.332;2022-12-11T00:36:12;5.05;;;3.58;;
75508;SDS011;64214;47.250;11.332;2022-12-11T00:36:25;4.97;;;3.67;;
75508;SDS011;64214;47.250;11.332;2022-12-11T00:36:37;4.82;;;3.67;;
75508;SDS011;64214;47.250;11.332;2022-12-11T00:36:48;4.82;;;3.70;;
75508;SDS011;64214;47.250;11.332;2022-12-11T00:36:59;5.13;;;3.67;;
75508;SDS011;64214;47.250;11.332;2022-12-11T00:37:10;5.18;;;3.72;;
75508;SDS011;64214;47.250;11.332;2022-12-11T00:37:21;4.85;;;3.78;;
75508;SDS011;64214;47.250;11.332;2022-12-11T00:37:33;4.63;;;3.72;;
75508;SDS011;64214;47.250;11.332;2022-12-11T00:37:44;4.72;;;3.63;;
75508;SDS011;64214;47.250;11.332;2022-12-11T00:37:55;5.15;;;3.70;;
75508;SDS011;64214;47.250;11.332;2022-12-11T00:38:07;5.23;;;3.83;;
75508;SDS011;64214;47.250;11.332;2022-12-11T00:38:19;4.85;;;3.92;;
75508;SDS011;64214;47.250;11.332;2022-12-11T00:38:31;4.97;;;3.97;;
75508;SDS011;64214;47.250;11.332;2022-12-11T00:38:42;4.72;;;3.70;;
75508;SDS011;64214;47.250;11.332;2022-12-11T00:38:53;5.38;;;3.60;;
75508;SDS011;64214;47.250;11.332;2022-12-11T00:39:04;5.72;;;3.60;;
75508;SDS011;64214;47.250;11.332;2022-12-11T00:39:16;5.18;;;3.38;;
75508;SDS011;64214;47.250;11.332;2022-12-11T00:39:27;4.43;;;3.25;;
75508;SDS011;64214;47.250;11.332;2022-12-11T00:39:38;4.60;;;3.45;;
75508;SDS011;64214;47.250;11.332;2022-12-11T00:39:50;5.10;;;3.50;;
75508;SDS011;64214;47.250;11.332;2022-12-11T00:40:01;5.07;;;3.60;;
75508;SDS011;64214;47.250;11.332;2022-12-11T00:40:12;5.15;;;3.72;;
75508;SDS011;64214;47.250;11.332;2022-12-11T00:40:23;5.30;;;4.07;;
75508;SDS011;64214;47.250;11.332;2022-12-11T00:40:35;5.53;;;4.53;;
75508;SDS011;64214;47.250;11.332;2022-12-11T00:40:47;5.50;;;4.65;;
75508;SDS011;64214;47.250;11.332;2022-12-11T00:40:59;5.78;;;4.60;;
75508;SDS011;64214;47.250;11.332;2022-12-11T00:41:10;6.32;;;4.93;;
75508;SDS011;64214;47.250;11.332;2022-12-11T00:41:22;6.83;;;5.10;;
75508;SDS011;64214;47.250;11.332;2022-12-11T00:41:33;6.82;;;5.30;;
75508;SDS011;64214;47.250;11.332;2022-12-11T00:41:44;7.00;;;5.30;;
75508;SDS011;64214;47.250;11.332;2022-12-11T00:41:55;6.47;;;4.85;;
75508;SDS011;64214;47.250;11.332;2022-12-11T00:42:07;6.30;;;4.50;;
75508;SDS011;64214;47.250;11.332;2022-12-11T00:42:19;5.88;;;4.53;;
75508;SDS011;64214;47.250;11.332;2022-12-11T00:42:30;6.10;;;4.88;;
75508;SDS011;64214;47.250;11.332;2022-12-11T00:42:41;6.03;;;4.65;;
75508;SDS011;64214;47.250;11.332;2022-12-11T00:42:52;5.45;;;4.22;;
75508;SDS011;64214;47.250;11.332;2022-12-11T00:43:03;4.88;;;4.00;;
75508;SDS011;64214;47.250;11.332;2022-12-11T00:43:14;5.07;;;4.18;;
75508;SDS011;64214;47.250;11.332;2022-12-11T00:43:26;5.43;;;4.20;;
75508;SDS011;64214;47.250;11.332;2022-12-11T00:43:37;5.32;;;4.13;;
75508;SDS011;64214;47.250;11.332;2022-12-11T00:43:48;4.82;;;4.07;;
75508;SDS011;64214;47.250;11.332;2022-12-11T00:43:59;5.05;;;4.07;;
75508;SDS011;64214;47.250;11.332;2022-12-11T00:44:10;4.88;;;3.83;;
75508;SDS011;64214;47.250;11.332;2022-12-11T00:44:21;4.70;;;3.60;;
75508;SDS011;64214;47.250;11.332;2022-12-11T00:44:32;4.72;;;3.70;;
75508;SDS011;64214;47.250;11.332;2022-12-11T00:44:44;4.80;;;3.75;;
75508;SDS011;64214;47.250;11.332;2022-12-11T00:44:55;4.57;;;3.72;;
75508;SDS011;64214;47.250;11.332;2022-12-11T00:45:06;4.20;;;3.60;;
75508;SDS011;64214;47.250;11.332;2022-12-11T00:45:18;4.00;;;3.42;;
75508;SDS011;64214;47.250;11.332;2022-12-11T00:45:29;4.13;;;3.47;;
75508;SDS011;64214;47.250;11.332;2022-12-11T00:45:43;4.15;;;3.42;;
75508;SDS011;64214;47.250;11.332;2022-12-11T00:45:55;4.32;;;3.33;;
75508;SDS011;64214;47.250;11.332;2022-12-11T00:46:06;4.45;;;3.50;;
75508;SDS011;64214;47.250;11.332;2022-12-11T00:46:18;4.95;;;3.70;;
75508;SDS011;64214;47.250;11.332;2022-12-11T00:46:29;5.15;;;3.63;;
75508;SDS011;64214;47.250;11.332;2022-12-11T00:46:40;5.28;;;3.63;;
75508;SDS011;64214;47.250;11.332;2022-12-11T00:46:51;5.75;;;3.85;;
75508;SDS011;64214;47.250;11.332;2022-12-11T00:47:02;5.70;;;3.90;;
75508;SDS011;64214;47.250;11.332;2022-12-11T00:47:13;5.38;;;3.88;;
75508;SDS011;64214;47.250;11.332;2022-12-11T00:47:24;5.70;;;3.90;;
75508;SDS011;64214;47.250;11.332;2022-12-11T00:47:35;5.95;;;4.20;;
75508;SDS011;64214;47.250;11.332;2022-12-11T00:47:46;6.35;;;4.55;;
75508;SDS011;64214;47.250;11.332;2022-12-11T00:47:57;6.88;;;5.15;;
75508;SDS011;64214;47.250;11.332;2022-12-11T00:48:09;7.05;;;5.22;;
75508;SDS011;64214;47.250;11.332;2022-12-11T00:48:21;7.30;;;5.38;;
75508;SDS011;64214;47.250;11.332;2022-12-11T00:48:32;7.45;;;5.25;;
75508;SDS011;64214;47.250;11.332;2022-12-11T00:48:43;7.53;;;5.20;;
75508;SDS011;64214;47.250;11.332;2022-12-11T00:48:55;7.53;;;5.20;;
75508;SDS011;64214;47.250;11.332;2022-12-11T00:49:06;7.05;;;5.05;;
75508;SDS011;64214;47.250;11.332;2022-12-11T00:49:17;7.85;;;5.43;;
75508;SDS011;64214;47.250;11.332;2022-12-11T00:49:29;8.20;;;5.45;;
75508;SDS011;64214;47.250;11.332;2022-12-11T00:49:40;8.25;;;5.60;;
75508;SDS011;64214;47.250;11.332;2022-12-11T00:49:51;7.88;;;5.30;;
75508;SDS011;64214;47.250;11.332;2022-12-11T00:50:02;7.97;;;5.43;;
75508;SDS011;64214;47.250;11.332;2022-12-11T00:50:13;9.23;;;6.00;;
75508;SDS011;64214;47.250;11.332;2022-12-11T00:50:24;9.45;;;6.35;;
75508;SDS011;64214;47.250;11.332;2022-12-11T00:50:36;10.07;;;6.22;;
75508;SDS011;64214;47.250;11.332;2022-12-11T00:50:48;9.50;;;6.13;;
75508;SDS011;64214;47.250;11.332;2022-12-11T00:50:59;10.00;;;6.82;;
75508;SDS011;64214;47.250;11.332;2022-12-11T00:51:10;10.45;;;7.43;;
75508;SDS011;64214;47.250;11.332;2022-12-11T00:51:21;10.48;;;7.55;;
75508;SDS011;64214;47.250;11.332;2022-12-11T00:51:32;9.75;;;7.15;;
75508;SDS011;64214;47.250;11.332;2022-12-11T00:51:43;9.82;;;7.10;;
75508;SDS011;64214;47.250;11.332;2022-12-11T00:51:54;10.45;;;7.43;;
75508;SDS011;64214;47.250;11.332;2022-12-11T00:52:05;11.45;;;7.80;;
75508;SDS011;64214;47.250;11.332;2022-12-11T00:52:17;12.00;;;7.93;;
75508;SDS011;64214;47.250;11.332;2022-12-11T00:52:28;11.60;;;7.85;;
75508;SDS011;64214;47.250;11.332;2022-12-11T00:52:39;11.13;;;7.63;;
75508;SDS011;64214;47.250;11.332;2022-12-11T00:52:50;10.93;;;7.57;;
75508;SDS011;64214;47.250;11.332;2022-12-11T00:53:02;10.93;;;7.55;;
75508;SDS011;64214;47.250;11.332;2022-12-11T00:53:14;10.63;;;7.95;;
75508;SDS011;64214;47.250;11.332;2022-12-11T00:53:25;10.23;;;7.90;;
75508;SDS011;64214;47.250;11.332;2022-12-11T00:53:36;10.00;;;7.55;;
75508;SDS011;64214;47.250;11.332;2022-12-11T00:53:48;9.15;;;7.07;;
75508;SDS011;64214;47.250;11.332;2022-12-11T00:54:01;10.15;;;7.40;;
75508;SDS011;64214;47.250;11.332;2022-12-11T00:54:13;11.15;;;7.68;;
75508;SDS011;64214;47.250;11.332;2022-12-11T00:54:24;11.05;;;7.32;;
75508;SDS011;64214;47.250;11.332;2022-12-11T00:54:35;9.07;;;6.57;;
75508;SDS011;64214;47.250;11.332;2022-12-11T00:54:46;8.25;;;6.30;;
75508;SDS011;64214;47.250;11.332;2022-12-11T00:54:57;8.10;;;6.40;;
75508;SDS011;64214;47.250;11.332;2022-12-11T00:55:08;7.95;;;6.50;;
75508;SDS011;64214;47.250;11.332;2022-12-11T00:55:20;8.43;;;6.70;;
75508;SDS011;64214;47.250;11.332;2022-12-11T00:55:31;8.65;;;7.05;;
75508;SDS011;64214;47.250;11.332;2022-12-11T00:55:46;9.05;;;7.53;;
75508;SDS011;64214;47.250;11.332;2022-12-11T00:55:57;8.93;;;7.43;;
75508;SDS011;64214;47.250;11.332;2022-12-11T00:56:12;8.70;;;7.13;;
75508;SDS011;64214;47.250;11.332;2022-12-11T00:56:25;9.73;;;7.65;;
75508;SDS011;64214;47.250;11.332;2022-12-11T00:56:36;9.07;;;7.35;;
75508;SDS011;64214;47.250;11.332;2022-12-11T00:56:47;8.05;;;6.93;;
75508;SDS011;64214;47.250;11.332;2022-12-11T00:56:58;7.90;;;6.80;;
75508;SDS011;64214;47.250;11.332;2022-12-11T00:57:09;7.55;;;6.45;;
75508;SDS011;64214;47.250;11.332;2022-12-11T00:57:20;6.90;;;5.85;;
75508;SDS011;64214;47.250;11.332;2022-12-11T00:57:31;6.30;;;5.50;;
75508;SDS011;64214;47.250;11.332;2022-12-11T00:57:45;6.45;;;5.80;;
75508;SDS011;64214;47.250;11.332;2022-12-11T00:57:57;6.63;;;5.72;;
75508;SDS011;64214;47.250;11.332;2022-12-11T00:58:08;6.53;;;5.45;;
75508;SDS011;64214;47.250;11.332;2022-12-11T00:58:20;6.55;;;5.32;;
75508;SDS011;64214;47.250;11.332;2022-12-11T00:58:31;6.68;;;5.47;;
75508;SDS011;64214;47.250;11.332;2022-12-11T00:58:43;6.57;;;5.22;;
75508;SDS011;64214;47.250;11.332;2022-12-11T00:58:55;5.90;;;5.20;;
75508;SDS011;64214;47.250;11.332;2022-12-11T00:59:06;5.88;;;5.00;;
75508;SDS011;64214;47.250;11.332;2022-12-11T00:59:17;6.20;;;5.10;;
75508;SDS011;64214;47.250;11.332;2022-12-11T00:59:28;6.05;;;5.13;;
75508;SDS011;64214;47.250;11.332;2022-12-11T00:59:42;5.85;;;5.20;;
75508;SDS011;64214;47.250;11.332;2022-12-11T00:59:53;5.97;;;5.20;;
75508;SDS011;64214;47.250;11.332;2022-12-11T01:00:05;5.93;;;4.90;;
75508;SDS011;64214;47.250;11.332;2022-12-11T01:00:17;5.63;;;4.70;;
75508;SDS011;64214;47.250;11.332;2022-12-11T01:00:28;5.30;;;4.70;;
75508;SDS011;64214;47.250;11.332;2022-12-11T01:00:40;5.93;;;4.93;;
75508;SDS011;64214;47.250;11.332;2022-12-11T01:00:54;6.22;;;5.13;;
75508;SDS011;64214;47.250;11.332;2022-12-11T01:01:08;6.18;;;5.05;;
75508;SDS011;64214;47.250;11.332;2022-12-11T01:01:21;6.47;;;5.22;;
75508;SDS011;64214;47.250;11.332;2022-12-11T01:01:33;6.97;;;5.13;;
75508;SDS011;64214;47.250;11.332;2022-12-11T01:01:45;6.53;;;4.93;;
75508;SDS011;64214;47.250;11.332;2022-12-11T01:01:56;6.47;;;5.20;;
75508;SDS011;64214;47.250;11.332;2022-12-11T01:02:07;5.95;;;5.28;;
75508;SDS011;64214;47.250;11.332;2022-12-11T01:02:18;6.32;;;5.50;;
75508;SDS011;64214;47.250;11.332;2022-12-11T01:02:29;6.20;;;5.40;;
75508;SDS011;64214;47.250;11.332;2022-12-11T01:02:40;6.70;;;5.60;;
75508;SDS011;64214;47.250;11.332;2022-12-11T01:02:51;7.00;;;5.80;;
75508;SDS011;64214;47.250;11.332;2022-12-11T01:03:03;6.75;;;5.78;;
75508;SDS011;64214;47.250;11.332;2022-12-11T01:03:14;6.37;;;5.60;;
75508;SDS011;64214;47.250;11.332;2022-12-11T01:03:26;6.32;;;5.57;;
75508;SDS011;64214;47.250;11.332;2022-12-11T01:03:37;6.68;;;5.65;;
75508;SDS011;64214;47.250;11.332;2022-12-11T01:03:49;6.85;;;5.72;;
75508;SDS011;64214;47.250;11.332;2022-12-11T01:04:01;6.47;;;5.63;;
75508;SDS011;64214;47.250;11.332;2022-12-11T01:04:12;6.57;;;5.70;;
75508;SDS011;64214;47.250;11.332;2022-12-11T01:04:23;6.50;;;5.80;;
75508;SDS011;64214;47.250;11.332;2022-12-11T01:04:35;6.45;;;5.75;;
75508;SDS011;64214;47.250;11.332;2022-12-11T01:04:46;5.97;;;5.38;;
75508;SDS011;64214;47.250;11.332;2022-12-11T01:04:57;5.68;;;5.05;;
75508;SDS011;64214;47.250;11.332;2022-12-11T01:05:09;5.97;;;5.15;;
75508;SDS011;64214;47.250;11.332;2022-12-11T01:05:20;6.10;;;4.85;;
75508;SDS011;64214;47.250;11.332;2022-12-11T01:05:32;5.57;;;4.60;;
75508;SDS011;64214;47.250;11.332;2022-12-11T01:05:50;5.37;;;4.37;;
75508;SDS011;64214;47.250;11.332;2022-12-11T01:06:03;5.25;;;4.28;;
75508;SDS011;64214;47.250;11.332;2022-12-11T01:06:15;5.18;;;4.35;;
75508;SDS011;64214;47.250;11.332;2022-12-11T01:06:28;5.03;;;4.25;;
75508;SDS011;64214;47.250;11.332;2022-12-11T01:06:39;5.03;;;4.28;;
75508;SDS011;64214;47.250;11.332;2022-12-11T01:06:50;5.53;;;4.40;;
75508;SDS011;64214;47.250;11.332;2022-12-11T01:07:02;5.43;;;4.55;;
75508;SDS011;64214;47.250;11.332;2022-12-11T01:07:13;5.40;;;4.68;;
75508;SDS011;64214;47.250;11.332;2022-12-11T01:07:24;5.20;;;4.60;;
75508;SDS011;64214;47.250;11.332;2022-12-11T01:07:35;5.13;;;4.63;;
75508;SDS011;64214;47.250;11.332;2022-12-11T01:07:46;5.07;;;4.57;;
75508;SDS011;64214;47.250;11.332;2022-12-11T01:07:57;4.90;;;4.45;;
75508;SDS011;64214;47.250;11.332;2022-12-11T01:08:08;4.80;;;4.30;;
75508;SDS011;64214;47.250;11.332;2022-12-11T01:08:20;5.13;;;4.35;;
75508;SDS011;64214;47.250;11.332;2022-12-11T01:08:31;5.40;;;4.40;;
75508;SDS011;64214;47.250;11.332;2022-12-11T01:08:43;5.28;;;4.28;;